Αρχική σελίδα
METAR-TAF:

METAR-TAF

Αεροδρόμια :

Fort Liard, Βορειοδυτικά Εδάφη, Καναδάς

γεωγραφικό πλάτος: 60-14N, γεωγραφικό μήκος: 123-29W, υψόμετρο: 215 μ

Παρών καιρός

Η αναφορά έγινε 14 ώρες και 41 λεπτά πριν, στις 23:00 UTC
Άνεμος 7 kt από ΝΔ
Θερμοκρασία -23°C
Υγρασία 76%
Πίεση 1024 hPa
Ορατότητα: 24.1 χλμ
Αρκετά νέφη σε ύψος 13000 πόδια
Αρκετά νέφη σε ύψος 22000 πόδια

METAR: CYJF 092300Z 22007KT 15SM BKN130 BKN220 M23/M26 A3025 RMK AC5CI1 S00 AFT 12Z 0/LAST STFD OBS/NXT 101500Z SLP271

Χρόνος: 06:41 (13:41 UTC)


TAF: λείπει

Μετεωρολογικές αναφορές και προγνώσεις για περισσότερα από 4000 αεροδρόμια (δελτία METAR και TAF).

Οι διαθέσιμοι σταθμοί απεικονίζονται στο χάρτη με κίτρινες και κόκκινες κουκκίδες.

Μετακινήστε το ποντίκι πάνω από τις κουκκίδες για να δείτε το όνομα του σταθμού.

Στη συνέχεια, κάντε κλικ για να δείτε τις μετεωρολογικές αναφορές και τις προγνώσεις καιρού.

Για να αλλάξετε το χάρτη: κάντε κλικ στα πράσινα κουμπιά με τον μαύρο σταυρό για να ζουμάρετε, στο πράσινο κουμπί με την παύλα για να αφαιρέσετε το ζουμ ή στα πράσινα βέλη για να αντιπαραβάλλετε χάρτες.


METAR-TAF: